Time,TemperatureF,DewpointF,PressureIn,WindDirection,WindDirectionDegrees,WindSpeedMPH,WindSpeedGustMPH,Humidity,HourlyPrecipIn,Conditions,Clouds,dailyrainin,SoftwareType,DateUTC
2013-05-19 19:00:00,75.3,55.9,29.45,WNW,300,15.0,21.0,51,0.00,,,0.00,Wunderground v.1.15,2013-05-20 00:00:00,
2013-05-19 19:10:00,72.8,56.7,29.48,West,274,17.0,17.0,57,0.00,,,0.00,Wunderground v.1.15,2013-05-20 00:10:00,
2013-05-19 19:20:00,71.0,48.6,29.51,WNW,293,16.0,16.0,45,0.00,,,0.00,Wunderground v.1.15,2013-05-20 00:20:00,
2013-05-19 19:30:00,68.6,52.3,29.51,West,281,9.0,9.0,56,0.00,,,0.00,Wunderground v.1.15,2013-05-20 00:30:00,
2013-05-19 19:40:00,67.9,54.4,29.50,NW,304,5.0,5.0,62,0.00,,,0.00,Wunderground v.1.15,2013-05-20 00:40:00,
2013-05-19 19:50:00,66.8,55.1,29.43,East,86,3.0,4.0,66,0.00,,,0.00,Wunderground v.1.15,2013-05-20 00:50:00,
2013-05-19 20:00:00,67.3,55.5,29.47,NW,304,6.0,6.0,66,0.00,,,0.00,Wunderground v.1.15,2013-05-20 01:00:00,
2013-05-19 20:10:00,67.2,56.7,29.49,WNW,288,7.0,7.0,69,0.00,,,0.00,Wunderground v.1.15,2013-05-20 01:10:00,
2013-05-19 20:20:00,67.6,56.7,29.49,WNW,292,9.0,9.0,68,0.00,,,0.00,Wunderground v.1.15,2013-05-20 01:20:00,
2013-05-19 20:30:00,67.9,54.4,29.48,NW,304,10.0,10.0,62,0.00,,,0.00,Wunderground v.1.15,2013-05-20 01:30:00,
2013-05-19 20:40:00,67.2,52.4,29.48,WNW,302,9.0,9.0,59,0.00,,,0.00,Wunderground v.1.15,2013-05-20 01:40:00,
2013-05-19 20:50:00,66.1,51.8,29.48,WNW,291,7.0,9.0,60,0.00,,,0.00,Wunderground v.1.15,2013-05-20 01:50:00,
2013-05-19 21:00:00,65.9,52.1,29.50,WNW,285,8.0,8.0,61,0.00,,,0.00,Wunderground v.1.15,2013-05-20 02:00:00,
2013-05-19 21:10:00,65.6,50.9,29.51,NW,307,8.0,8.0,59,0.00,,,0.00,Wunderground v.1.15,2013-05-20 02:10:00,
2013-05-19 21:20:00,65.2,50.5,29.52,West,269,6.0,6.0,59,0.00,,,0.00,Wunderground v.1.15,2013-05-20 02:20:00,
2013-05-19 21:30:00,64.5,50.7,29.53,West,262,3.0,3.0,61,0.00,,,0.00,Wunderground v.1.15,2013-05-20 02:30:00,
2013-05-19 21:40:00,63.7,51.3,29.55,West,259,1.0,1.0,64,0.00,,,0.00,Wunderground v.1.15,2013-05-20 02:40:00,
2013-05-19 21:50:00,62.8,51.7,29.56,WNW,289,1.0,3.0,67,0.00,,,0.00,Wunderground v.1.15,2013-05-20 02:50:00,
2013-05-19 22:00:00,61.5,51.6,29.57,WSW,238,2.0,2.0,70,0.00,,,0.00,Wunderground v.1.15,2013-05-20 03:00:00,
2013-05-19 22:10:00,61.2,51.3,29.57,West,276,2.0,2.0,70,0.00,,,0.00,Wunderground v.1.15,2013-05-20 03:10:00,
2013-05-19 22:20:00,60.8,51.7,29.57,WNW,285,1.0,1.0,72,0.00,,,0.00,Wunderground v.1.15,2013-05-20 03:20:00,
2013-05-19 22:30:00,59.3,51.7,29.58,WNW,283,2.0,3.0,76,0.00,,,0.00,Wunderground v.1.15,2013-05-20 03:30:00,
2013-05-19 22:40:00,59.2,50.9,29.57,WSW,255,3.0,3.0,74,0.00,,,0.00,Wunderground v.1.15,2013-05-20 03:40:00,
2013-05-19 22:50:00,59.1,50.5,29.57,West,262,2.0,2.0,73,0.00,,,0.00,Wunderground v.1.15,2013-05-20 03:50:00,
2013-05-19 23:00:00,59.0,50.0,29.58,SW,235,1.0,1.0,72,0.00,,,0.00,Wunderground v.1.15,2013-05-20 04:00:00,
2013-05-19 23:10:00,58.6,49.6,29.58,South,190,1.0,3.0,72,0.00,,,0.00,Wunderground v.1.15,2013-05-20 04:10:00,
2013-05-19 23:20:00,58.1,49.9,29.59,SSW,196,2.0,2.0,74,0.00,,,0.00,Wunderground v.1.15,2013-05-20 04:20:00,
2013-05-19 23:40:00,58.0,50.5,29.58,SSW,203,2.0,2.0,76,0.00,,,0.00,Wunderground v.1.15,2013-05-20 04:40:00,
2013-05-19 23:50:00,58.1,50.2,29.57,West,271,2.0,2.0,75,0.00,,,0.00,Wunderground v.1.15,2013-05-20 04:50:00,